Time;durP1;ratioP1;P1;durP2;ratioP2;P2;SDS_P1;SDS_P2;PMS_P1;PMS_P2;Temp;Humidity;BMP_temperature;BMP_pressure;BME280_temperature;BME280_humidity;BME280_pressure;Samples;Min_cycle;Max_cycle;Signal;HPM_P1;HPM_P2
2024/01/22 00:02:25;;;;;;;5.00;2.30;;;6.10;99.90;;;;;;5035799;28;20187;-78
2024/01/22 00:04:50;;;;;;;4.90;2.20;;;6.10;99.90;;;;;;5035393;28;20183;-78
2024/01/22 00:07:16;;;;;;;3.97;2.10;;;6.10;99.90;;;;;;5036509;28;20253;-77
2024/01/22 00:09:41;;;;;;;4.23;2.03;;;6.10;99.90;;;;;;5036641;28;20233;-77
2024/01/22 00:12:07;;;;;;;3.47;1.90;;;6.20;99.90;;;;;;5037002;28;20218;-78
2024/01/22 00:14:32;;;;;;;4.70;2.00;;;6.20;99.90;;;;;;5034519;28;20212;-78
2024/01/22 00:16:58;;;;;;;4.00;2.17;;;6.20;99.90;;;;;;5036842;28;20177;-77
2024/01/22 00:19:23;;;;;;;5.30;2.30;;;6.20;99.90;;;;;;5037117;28;20196;-78
2024/01/22 00:21:49;;;;;;;4.53;2.20;;;6.20;99.90;;;;;;5035663;28;20176;-78
2024/01/22 00:24:14;;;;;;;3.50;1.83;;;6.30;99.90;;;;;;5035756;28;20245;-78
2024/01/22 00:26:40;;;;;;;3.93;2.03;;;6.20;99.90;;;;;;5037599;28;20198;-77
2024/01/22 00:29:06;;;;;;;4.67;2.30;;;6.30;99.90;;;;;;5034433;28;20576;-77
2024/01/22 00:31:31;;;;;;;3.97;2.27;;;6.30;99.90;;;;;;5035095;28;20608;-77
2024/01/22 00:33:57;;;;;;;3.90;2.40;;;6.30;99.90;;;;;;5036192;28;20234;-78
2024/01/22 00:36:22;;;;;;;7.20;2.00;;;6.40;99.90;;;;;;5036354;28;20251;-77
2024/01/22 00:38:48;;;;;;;3.20;2.00;;;6.40;99.90;;;;;;5035608;28;20190;-78
2024/01/22 00:41:13;;;;;;;3.33;2.07;;;6.40;99.90;;;;;;5034757;28;20204;-78
2024/01/22 00:43:39;;;;;;;4.23;2.10;;;6.40;99.90;;;;;;5035912;28;20172;-77
2024/01/22 00:46:04;;;;;;;3.07;1.93;;;6.50;99.90;;;;;;5034613;28;20191;-78
2024/01/22 00:48:30;;;;;;;4.57;2.43;;;6.50;99.90;;;;;;5036159;28;20181;-78
2024/01/22 00:50:55;;;;;;;2.67;1.80;;;6.50;99.90;;;;;;5034466;28;20254;-78
2024/01/22 00:53:21;;;;;;;3.17;2.00;;;6.50;99.90;;;;;;5034336;28;20187;-78
2024/01/22 00:55:47;;;;;;;4.43;2.00;;;6.50;99.90;;;;;;5036272;28;20223;-78
2024/01/22 00:58:12;;;;;;;4.00;2.43;;;6.50;99.90;;;;;;5036548;28;20180;-77
2024/01/22 01:00:38;;;;;;;3.67;1.90;;;6.50;99.90;;;;;;5035827;28;20231;-78
2024/01/22 01:03:03;;;;;;;3.23;1.70;;;6.50;99.90;;;;;;5035567;28;20301;-78
2024/01/22 01:05:29;;;;;;;4.73;1.90;;;6.60;99.90;;;;;;5035683;28;20171;-78
2024/01/22 01:07:55;;;;;;;4.67;1.70;;;6.60;99.90;;;;;;5036256;28;20184;-78
2024/01/22 01:10:20;;;;;;;4.97;2.00;;;6.60;99.90;;;;;;5034057;28;20200;-78
2024/01/22 01:12:46;;;;;;;4.47;2.13;;;6.60;99.90;;;;;;5035791;28;20187;-78
2024/01/22 01:15:11;;;;;;;5.10;2.53;;;6.60;99.90;;;;;;5033956;28;20642;-78
2024/01/22 01:17:37;;;;;;;3.67;1.97;;;6.60;99.90;;;;;;5034154;28;20210;-78
2024/01/22 01:20:03;;;;;;;2.87;1.50;;;6.60;99.90;;;;;;5033850;28;20291;-78
2024/01/22 01:22:30;;;;;;;4.30;2.17;;;6.60;99.90;;;;;;5035027;28;20177;-78
2024/01/22 01:24:56;;;;;;;2.67;1.60;;;6.60;99.90;;;;;;5034933;28;20208;-78
2024/01/22 01:27:21;;;;;;;5.00;1.90;;;6.70;99.90;;;;;;5035859;28;20172;-78
2024/01/22 01:29:47;;;;;;;2.53;2.07;;;6.60;99.90;;;;;;5036201;28;20199;-78
2024/01/22 01:32:12;;;;;;;3.97;1.80;;;6.60;99.90;;;;;;5035376;28;20183;-78
2024/01/22 01:34:38;;;;;;;4.20;2.07;;;6.70;99.90;;;;;;5035019;28;20211;-78
2024/01/22 01:37:04;;;;;;;4.90;1.80;;;6.60;99.90;;;;;;5035362;28;20585;-78
2024/01/22 01:39:30;;;;;;;4.93;1.60;;;6.70;99.90;;;;;;5035496;28;20266;-78
2024/01/22 01:41:56;;;;;;;2.47;1.70;;;6.70;99.90;;;;;;5035365;28;20179;-78
2024/01/22 01:44:49;;;;;;;6.77;2.07;;;6.70;99.90;;;;;;5036270;28;20176;-78
2024/01/22 01:47:15;;;;;;;2.97;1.60;;;6.80;99.90;;;;;;5035427;28;20191;-78
2024/01/22 01:49:41;;;;;;;4.90;1.87;;;6.80;99.90;;;;;;5034207;28;20204;-78
2024/01/22 01:52:06;;;;;;;3.10;1.80;;;6.80;99.90;;;;;;5034706;28;20239;-78
2024/01/22 01:54:32;;;;;;;2.07;1.43;;;6.90;99.90;;;;;;5034035;28;20226;-78
2024/01/22 01:56:58;;;;;;;3.77;1.43;;;6.90;99.90;;;;;;5035476;28;20233;-78
2024/01/22 01:59:24;;;;;;;4.03;1.57;;;6.90;99.90;;;;;;5033771;28;20207;-78
2024/01/22 02:01:50;;;;;;;3.37;1.37;;;7.00;99.90;;;;;;5033946;28;20267;-78
2024/01/22 02:04:15;;;;;;;3.83;1.60;;;7.00;99.90;;;;;;5033928;28;20272;-78
2024/01/22 02:06:41;;;;;;;3.90;1.40;;;7.10;99.90;;;;;;5036263;28;20175;-78
2024/01/22 02:09:07;;;;;;;3.20;1.60;;;7.10;99.90;;;;;;5035392;28;20552;-77
2024/01/22 02:11:32;;;;;;;2.93;1.33;;;7.20;99.90;;;;;;5035257;28;20177;-77
2024/01/22 02:13:58;;;;;;;5.57;1.27;;;7.20;99.90;;;;;;5034751;28;20495;-78
2024/01/22 02:16:23;;;;;;;1.80;1.50;;;7.20;99.90;;;;;;5034971;28;20640;-78
2024/01/22 02:18:49;;;;;;;3.80;1.57;;;7.30;99.90;;;;;;5033764;28;20640;-77
2024/01/22 02:21:14;;;;;;;3.23;1.13;;;7.30;99.90;;;;;;5033788;28;20291;-78
2024/01/22 02:23:40;;;;;;;2.53;1.27;;;7.40;99.90;;;;;;5035073;28;20169;-78
2024/01/22 02:26:06;;;;;;;4.63;1.50;;;7.40;99.90;;;;;;5034697;28;20176;-78
2024/01/22 02:28:32;;;;;;;3.30;1.63;;;7.40;99.90;;;;;;5033600;28;20180;-78
2024/01/22 02:30:58;;;;;;;3.73;1.57;;;7.40;99.90;;;;;;5034570;28;20198;-78
2024/01/22 02:33:24;;;;;;;2.80;1.30;;;7.50;99.90;;;;;;5034693;28;20647;-78
2024/01/22 02:35:49;;;;;;;4.33;1.30;;;7.50;99.90;;;;;;5034838;28;20223;-78
2024/01/22 02:38:15;;;;;;;3.50;1.57;;;7.50;99.90;;;;;;5036605;28;20611;-78
2024/01/22 02:40:41;;;;;;;3.90;1.30;;;7.60;99.90;;;;;;5038043;28;20196;-78
2024/01/22 02:43:06;;;;;;;4.10;1.60;;;7.60;99.90;;;;;;5038157;28;20176;-78
2024/01/22 02:45:32;;;;;;;2.03;1.40;;;7.60;99.90;;;;;;5037051;28;20214;-78
2024/01/22 02:47:57;;;;;;;2.47;1.27;;;7.60;99.90;;;;;;5036966;28;20566;-78
2024/01/22 02:50:23;;;;;;;2.73;1.30;;;7.60;99.90;;;;;;5036717;28;20196;-78
2024/01/22 02:52:49;;;;;;;3.00;1.40;;;7.60;99.90;;;;;;5036805;28;20180;-78
2024/01/22 02:55:14;;;;;;;2.93;1.33;;;7.60;99.90;;;;;;5038385;28;20207;-77
2024/01/22 02:57:40;;;;;;;2.53;1.50;;;7.60;99.90;;;;;;5037748;28;20187;-77
2024/01/22 03:00:06;;;;;;;1.53;1.20;;;7.60;99.90;;;;;;5036580;28;20196;-77
2024/01/22 03:02:31;;;;;;;3.10;1.33;;;7.70;99.90;;;;;;5038292;28;20172;-78
2024/01/22 03:04:57;;;;;;;2.53;1.67;;;7.70;99.90;;;;;;5036709;28;20246;-78
2024/01/22 03:07:22;;;;;;;2.97;1.37;;;7.70;99.90;;;;;;5042003;28;20246;-77
2024/01/22 03:09:48;;;;;;;1.70;1.10;;;7.70;99.90;;;;;;5042800;28;20215;-78
2024/01/22 03:12:14;;;;;;;3.57;1.57;;;7.80;99.90;;;;;;5042528;28;20183;-77
2024/01/22 03:14:39;;;;;;;2.30;1.10;;;7.80;99.90;;;;;;5037030;28;20200;-77
2024/01/22 03:17:05;;;;;;;3.30;1.20;;;7.70;99.90;;;;;;5037787;28;20207;-78
2024/01/22 03:19:30;;;;;;;3.00;1.30;;;7.80;99.90;;;;;;5038161;28;20551;-78
2024/01/22 03:21:56;;;;;;;1.93;1.40;;;7.80;99.90;;;;;;5036862;28;20219;-78
2024/01/22 03:24:22;;;;;;;3.17;1.10;;;7.90;99.90;;;;;;5036398;28;20184;-79
2024/01/22 03:26:48;;;;;;;2.60;1.17;;;7.80;99.90;;;;;;5037996;28;20770;-78
2024/01/22 03:29:13;;;;;;;3.53;1.30;;;7.80;99.90;;;;;;5036475;28;20192;-78
2024/01/22 03:31:39;;;;;;;2.97;1.43;;;7.80;99.90;;;;;;5037961;28;20230;-78
2024/01/22 03:34:04;;;;;;;2.33;1.33;;;7.80;99.90;;;;;;5037862;28;20191;-78
2024/01/22 03:36:31;;;;;;;2.27;1.50;;;7.80;99.90;;;;;;5037941;28;20218;-78
2024/01/22 03:38:57;;;;;;;3.73;1.43;;;7.90;99.90;;;;;;5037693;28;20164;-78
2024/01/22 03:41:22;;;;;;;2.30;1.47;;;7.90;99.90;;;;;;5038059;28;20194;-78
2024/01/22 03:43:48;;;;;;;1.77;1.40;;;7.80;99.90;;;;;;5037494;28;20172;-78
2024/01/22 03:46:14;;;;;;;1.87;1.13;;;7.80;99.90;;;;;;5038250;28;20176;-78
2024/01/22 03:48:41;;;;;;;2.93;1.60;;;7.80;99.90;;;;;;5035699;28;20208;-78
2024/01/22 03:51:06;;;;;;;2.70;1.50;;;7.70;99.90;;;;;;5037354;28;20200;-78
2024/01/22 03:53:32;;;;;;;2.80;1.30;;;7.70;99.90;;;;;;5036582;28;20172;-78
2024/01/22 03:55:58;;;;;;;4.43;1.50;;;7.70;99.90;;;;;;5037174;28;20207;-78
2024/01/22 03:58:24;;;;;;;1.97;1.20;;;7.60;99.90;;;;;;5037166;28;20180;-77
2024/01/22 04:00:49;;;;;;;2.93;1.37;;;7.60;99.90;;;;;;5037201;28;20248;-78
2024/01/22 04:03:15;;;;;;;3.60;1.50;;;7.60;99.90;;;;;;5036602;28;20639;-78
2024/01/22 04:05:42;;;;;;;2.27;1.37;;;7.60;99.90;;;;;;5034614;28;20214;-77
2024/01/22 04:08:08;;;;;;;5.10;1.60;;;7.60;99.90;;;;;;5036552;28;20690;-78
2024/01/22 04:10:34;;;;;;;4.30;1.50;;;7.60;99.90;;;;;;5036537;28;20200;-78
2024/01/22 04:12:59;;;;;;;3.70;1.73;;;7.60;99.90;;;;;;5034955;28;20287;-79
2024/01/22 04:15:25;;;;;;;4.13;1.43;;;7.60;99.90;;;;;;5034591;28;20196;-78
2024/01/22 04:17:50;;;;;;;5.33;1.60;;;7.60;99.90;;;;;;5035301;28;20259;-78
2024/01/22 04:20:16;;;;;;;3.37;1.40;;;7.60;99.90;;;;;;5036201;28;20232;-78
2024/01/22 04:22:41;;;;;;;3.27;1.60;;;7.60;99.90;;;;;;5034862;28;20172;-78
2024/01/22 04:25:07;;;;;;;3.57;1.33;;;7.60;99.90;;;;;;5034718;28;20195;-78
2024/01/22 04:27:33;;;;;;;4.83;1.50;;;7.60;99.90;;;;;;5036359;28;20172;-79
2024/01/22 04:29:58;;;;;;;6.77;1.70;;;7.60;99.90;;;;;;5036445;28;20249;-78
2024/01/22 04:32:24;;;;;;;5.13;1.53;;;7.60;99.90;;;;;;5035331;28;20187;-79
2024/01/22 04:34:50;;;;;;;3.87;1.47;;;7.60;99.90;;;;;;5035397;28;20212;-78
2024/01/22 04:37:16;;;;;;;4.00;1.70;;;7.60;99.90;;;;;;5034436;28;20247;-78
2024/01/22 04:39:42;;;;;;;4.73;1.30;;;7.60;99.90;;;;;;5033302;28;20283;-78
2024/01/22 04:42:08;;;;;;;4.33;1.50;;;7.60;99.90;;;;;;5034495;28;20554;-78
2024/01/22 04:44:34;;;;;;;2.40;1.37;;;7.60;99.90;;;;;;5035124;28;20271;-77
2024/01/22 04:47:00;;;;;;;3.13;1.40;;;7.60;99.90;;;;;;5035745;28;20176;-78
2024/01/22 04:49:25;;;;;;;5.83;1.50;;;7.60;99.90;;;;;;5035910;28;20200;-78
2024/01/22 04:51:51;;;;;;;4.73;1.77;;;7.60;99.90;;;;;;5034771;28;20192;-78
2024/01/22 04:54:17;;;;;;;2.40;1.57;;;7.60;99.90;;;;;;5034480;28;20299;-78
2024/01/22 04:56:45;;;;;;;2.37;1.43;;;7.60;99.90;;;;;;5034372;28;20319;-78
2024/01/22 04:59:11;;;;;;;2.57;1.47;;;7.60;99.90;;;;;;5036045;28;20176;-78
2024/01/22 05:01:36;;;;;;;3.73;1.60;;;7.60;99.90;;;;;;5033457;28;20177;-78
2024/01/22 05:04:03;;;;;;;4.30;1.47;;;7.60;99.90;;;;;;5035803;28;20478;-78
2024/01/22 05:06:28;;;;;;;2.97;1.60;;;7.70;99.90;;;;;;5034411;28;20177;-78
2024/01/22 05:08:54;;;;;;;3.03;1.50;;;7.70;99.90;;;;;;5033707;28;20270;-79
2024/01/22 05:11:19;;;;;;;2.50;1.10;;;7.70;99.90;;;;;;5034388;28;20680;-78
2024/01/22 05:13:53;;;;;;;2.30;1.50;;;7.70;99.90;;;;;;5035917;28;20279;-78
2024/01/22 05:16:20;;;;;;;2.33;1.40;;;7.80;99.90;;;;;;5034293;28;20179;-78
2024/01/22 05:18:47;;;;;;;3.90;1.50;;;7.80;99.90;;;;;;5035993;28;20160;-78
2024/01/22 05:21:13;;;;;;;4.07;1.60;;;7.80;99.90;;;;;;5034873;28;20189;-78
2024/01/22 05:23:39;;;;;;;4.23;1.10;;;7.80;99.90;;;;;;5035522;28;20183;-79
2024/01/22 05:26:08;;;;;;;2.77;1.20;;;7.80;99.90;;;;;;5034702;28;20176;-79
2024/01/22 05:28:34;;;;;;;3.13;1.37;;;7.80;99.90;;;;;;5033490;28;20225;-79
2024/01/22 05:31:00;;;;;;;4.30;1.30;;;7.80;99.90;;;;;;5034747;28;20192;-78
2024/01/22 05:33:27;;;;;;;2.53;1.20;;;7.90;99.90;;;;;;5034628;28;20194;-78
2024/01/22 05:35:53;;;;;;;2.57;1.27;;;7.90;99.90;;;;;;5034858;28;20223;-78
2024/01/22 05:38:19;;;;;;;3.27;1.20;;;8.00;99.90;;;;;;5035280;28;20172;-78
2024/01/22 05:40:44;;;;;;;3.27;1.20;;;8.00;99.90;;;;;;5033421;28;20223;-79
2024/01/22 05:43:10;;;;;;;3.57;1.37;;;8.00;99.90;;;;;;5034865;28;20199;-78
2024/01/22 05:45:36;;;;;;;3.40;1.20;;;8.10;99.90;;;;;;5033381;28;20222;-77
2024/01/22 05:48:01;;;;;;;3.27;1.40;;;8.10;99.90;;;;;;5033314;28;20184;-78
2024/01/22 05:50:27;;;;;;;3.63;1.30;;;8.10;99.90;;;;;;5034708;28;20238;-78
2024/01/22 05:52:53;;;;;;;7.33;1.30;;;8.30;99.90;;;;;;5034685;28;20183;-78
2024/01/22 05:55:18;;;;;;;3.87;1.03;;;8.30;99.90;;;;;;5034675;28;20298;-78
2024/01/22 05:57:44;;;;;;;4.67;1.20;;;8.30;99.90;;;;;;5033840;28;20580;-78
2024/01/22 06:00:12;;;;;;;4.50;1.03;;;8.30;99.90;;;;;;5034746;28;20292;-78
2024/01/22 06:02:42;;;;;;;2.20;0.80;;;8.40;99.90;;;;;;5033250;28;20169;-78
2024/01/22 06:05:09;;;;;;;3.40;1.07;;;8.50;99.90;;;;;;5035044;28;20184;-79
2024/01/22 06:07:36;;;;;;;2.53;0.90;;;8.70;99.90;;;;;;5033112;28;20230;-78
2024/01/22 06:10:02;;;;;;;2.13;0.97;;;8.80;99.90;;;;;;5032775;28;20227;-78
2024/01/22 06:12:28;;;;;;;3.23;1.20;;;8.90;99.90;;;;;;5037225;28;20179;-78
2024/01/22 06:14:53;;;;;;;2.33;1.07;;;9.00;99.90;;;;;;5036922;28;20204;-78
2024/01/22 06:17:19;;;;;;;2.80;0.90;;;9.00;99.90;;;;;;5038673;28;20637;-77
2024/01/22 06:19:44;;;;;;;1.60;0.80;;;9.10;99.90;;;;;;5037112;28;20192;-77
2024/01/22 06:22:12;;;;;;;2.90;0.97;;;9.10;99.90;;;;;;5037904;28;20200;-78
2024/01/22 06:24:40;;;;;;;4.37;0.90;;;9.20;99.90;;;;;;5037702;28;20172;-78
2024/01/22 06:27:06;;;;;;;1.07;0.70;;;9.30;99.90;;;;;;5038923;28;20656;-78
2024/01/22 06:29:35;;;;;;;1.97;0.80;;;9.30;99.90;;;;;;5038864;28;20682;-77
2024/01/22 06:32:01;;;;;;;2.83;0.80;;;9.30;99.90;;;;;;5039281;28;20179;-78
2024/01/22 06:34:26;;;;;;;0.90;0.60;;;9.40;99.90;;;;;;5038057;28;20684;-78
2024/01/22 06:36:52;;;;;;;1.53;0.97;;;9.40;99.90;;;;;;5038455;28;20643;-78
2024/01/22 06:39:17;;;;;;;2.17;0.50;;;9.60;99.90;;;;;;5039032;28;20175;-78
2024/01/22 06:41:43;;;;;;;2.93;0.73;;;9.70;99.90;;;;;;5039086;28;20172;-79
2024/01/22 06:44:09;;;;;;;1.80;0.43;;;9.80;99.90;;;;;;5037333;28;20190;-78
2024/01/22 06:46:34;;;;;;;1.70;0.90;;;9.80;99.90;;;;;;5037873;28;20267;-78
2024/01/22 06:49:00;;;;;;;2.13;1.17;;;9.90;99.90;;;;;;5038919;28;20610;-78
2024/01/22 06:51:25;;;;;;;0.70;0.50;;;10.10;99.90;;;;;;5038186;28;20706;-79
2024/01/22 06:53:51;;;;;;;1.47;0.60;;;10.10;99.90;;;;;;5036691;28;20253;-78
2024/01/22 06:56:17;;;;;;;0.90;0.60;;;10.20;99.90;;;;;;5037479;28;20331;-78
2024/01/22 06:58:42;;;;;;;0.90;0.50;;;10.20;99.90;;;;;;5037333;28;20165;-78
2024/01/22 07:01:08;;;;;;;0.77;0.50;;;10.20;99.90;;;;;;5037071;28;20192;-78
2024/01/22 07:03:35;;;;;;;1.67;0.50;;;10.10;99.90;;;;;;5036329;28;20181;-78
2024/01/22 07:06:01;;;;;;;4.90;0.63;;;10.20;99.90;;;;;;5035709;28;20656;-78
2024/01/22 07:08:26;;;;;;;2.00;0.50;;;10.10;99.90;;;;;;5036021;28;20183;-79
2024/01/22 07:10:52;;;;;;;1.17;0.50;;;10.10;99.90;;;;;;5037559;28;20656;-78
2024/01/22 07:13:17;;;;;;;1.23;0.57;;;10.20;99.90;;;;;;5036148;28;20184;-78
2024/01/22 07:15:43;;;;;;;3.03;0.70;;;10.20;99.90;;;;;;5035991;28;20204;-78
2024/01/22 07:18:08;;;;;;;0.80;0.60;;;10.10;99.90;;;;;;5036317;28;20168;-79
2024/01/22 07:20:34;;;;;;;0.77;0.57;;;10.30;99.90;;;;;;5037246;28;20188;-78
2024/01/22 07:23:00;;;;;;;1.33;0.57;;;10.30;99.90;;;;;;5035142;28;20187;-80
2024/01/22 07:25:25;;;;;;;1.27;0.70;;;10.40;99.90;;;;;;5037680;28;20172;-78
2024/01/22 07:27:51;;;;;;;3.93;0.90;;;10.50;99.90;;;;;;5037745;28;20214;-78
2024/01/22 07:30:17;;;;;;;1.00;0.50;;;10.60;99.90;;;;;;5038331;28;20288;-78
2024/01/22 07:32:44;;;;;;;2.07;0.70;;;10.70;99.90;;;;;;5037649;28;20586;-78
2024/01/22 07:35:11;;;;;;;2.33;0.60;;;10.70;99.90;;;;;;5038649;28;20592;-78
2024/01/22 07:37:37;;;;;;;2.73;1.00;;;10.90;99.90;;;;;;5035549;28;20176;-78
2024/01/22 07:40:04;;;;;;;1.10;0.70;;;10.90;99.90;;;;;;5036884;28;20199;-78
2024/01/22 07:42:31;;;;;;;1.43;0.70;;;10.90;99.90;;;;;;5035966;28;20653;-78
2024/01/22 07:44:57;;;;;;;1.77;0.70;;;11.10;99.90;;;;;;5036268;28;20187;-78
2024/01/22 07:47:23;;;;;;;2.27;0.80;;;11.30;99.90;;;;;;5037631;28;20177;-78
2024/01/22 07:49:48;;;;;;;1.07;0.50;;;11.30;99.90;;;;;;5040446;28;20196;-78
2024/01/22 07:52:14;;;;;;;1.80;0.63;;;11.40;99.90;;;;;;5044972;28;20181;-79
2024/01/22 07:54:40;;;;;;;1.73;0.60;;;11.30;99.90;;;;;;5045408;28;20254;-79
2024/01/22 07:57:06;;;;;;;1.10;0.70;;;11.30;99.90;;;;;;5045083;28;20698;-78
2024/01/22 07:59:31;;;;;;;0.90;0.60;;;11.30;99.90;;;;;;5037457;28;20192;-79
2024/01/22 08:01:57;;;;;;;1.37;0.57;;;11.30;99.90;;;;;;5035619;28;20208;-78
2024/01/22 08:04:23;;;;;;;0.70;0.50;;;11.20;99.90;;;;;;5037272;28;20179;-79
2024/01/22 08:06:48;;;;;;;0.93;0.40;;;11.20;99.90;;;;;;5036853;28;20176;-78
2024/01/22 08:09:14;;;;;;;0.77;0.53;;;11.10;99.90;;;;;;5036788;28;20180;-78
2024/01/22 08:11:41;;;;;;;1.13;0.50;;;11.00;99.90;;;;;;5037040;28;20177;-79
2024/01/22 08:14:06;;;;;;;1.87;0.50;;;11.00;99.90;;;;;;5036907;28;20175;-78
2024/01/22 08:16:32;;;;;;;1.67;0.80;;;10.90;99.90;;;;;;5037205;28;20164;-78
2024/01/22 08:18:58;;;;;;;2.63;0.70;;;10.90;99.90;;;;;;5036650;28;20230;-79
2024/01/22 08:21:23;;;;;;;1.37;0.60;;;10.90;99.90;;;;;;5034677;28;20200;-78
2024/01/22 08:23:49;;;;;;;1.30;0.50;;;10.80;99.90;;;;;;5035048;28;20176;-78
2024/01/22 08:26:14;;;;;;;1.27;0.40;;;10.80;99.90;;;;;;5034696;28;20323;-79
2024/01/22 08:28:40;;;;;;;1.37;0.60;;;10.70;99.90;;;;;;5035056;28;20207;-78
2024/01/22 08:31:06;;;;;;;3.07;0.50;;;10.70;99.90;;;;;;5036303;28;20200;-79
2024/01/22 08:33:31;;;;;;;1.27;0.60;;;10.70;99.90;;;;;;5034624;28;20192;-78
2024/01/22 08:35:57;;;;;;;0.80;0.60;;;10.60;99.90;;;;;;5035025;28;20683;-78
2024/01/22 08:38:22;;;;;;;1.40;0.57;;;10.50;99.90;;;;;;5037158;28;20192;-79
2024/01/22 08:40:48;;;;;;;0.90;0.60;;;10.50;99.90;;;;;;5034548;28;20626;-78
2024/01/22 08:43:13;;;;;;;1.10;0.50;;;10.50;99.90;;;;;;5036043;28;20187;-78
2024/01/22 08:45:39;;;;;;;2.07;0.70;;;10.40;99.90;;;;;;5035187;28;20183;-78
2024/01/22 08:48:04;;;;;;;2.27;0.50;;;10.40;99.90;;;;;;5036338;28;20176;-78
2024/01/22 08:50:30;;;;;;;2.60;0.70;;;10.40;99.90;;;;;;5036177;28;20192;-79
2024/01/22 08:52:56;;;;;;;0.70;0.50;;;10.50;99.90;;;;;;5036453;28;20172;-78
2024/01/22 08:55:24;;;;;;;3.07;0.80;;;10.40;99.90;;;;;;5035622;28;20291;-79
2024/01/22 08:57:53;;;;;;;1.67;0.67;;;10.30;99.90;;;;;;5035798;28;20187;-79
2024/01/22 09:00:20;;;;;;;1.70;0.70;;;10.30;99.90;;;;;;5034453;28;20663;-79
2024/01/22 09:02:46;;;;;;;1.73;0.70;;;10.30;99.90;;;;;;5034459;28;20172;-79
2024/01/22 09:05:13;;;;;;;1.80;0.70;;;10.40;99.90;;;;;;5036346;28;20255;-79
2024/01/22 09:07:38;;;;;;;1.10;0.57;;;10.40;99.90;;;;;;5036236;28;20202;-78
2024/01/22 09:10:07;;;;;;;0.90;0.57;;;10.40;99.90;;;;;;5036095;28;20195;-78
2024/01/22 09:12:36;;;;;;;2.63;0.57;;;10.40;99.90;;;;;;5036032;28;20168;-79
2024/01/22 09:15:04;;;;;;;2.10;0.77;;;10.50;99.90;;;;;;5054654;28;20203;-79
2024/01/22 09:17:30;;;;;;;1.30;0.50;;;10.50;99.90;;;;;;5055164;28;20620;-78
2024/01/22 09:19:56;;;;;;;1.20;0.67;;;10.50;99.90;;;;;;5054231;28;20203;-78
2024/01/22 09:22:22;;;;;;;1.03;0.60;;;10.60;99.90;;;;;;5053904;28;20171;-78
2024/01/22 09:24:48;;;;;;;2.63;0.80;;;10.60;99.90;;;;;;5053847;28;20175;-78
2024/01/22 09:27:13;;;;;;;4.87;0.90;;;10.60;99.90;;;;;;5053738;28;20283;-78
2024/01/22 09:29:42;;;;;;;1.27;0.80;;;10.70;99.90;;;;;;5055677;28;20187;-79
2024/01/22 09:32:09;;;;;;;2.00;0.90;;;10.70;99.90;;;;;;5053110;28;20175;-79
2024/01/22 09:34:35;;;;;;;2.73;0.90;;;10.70;99.90;;;;;;5055272;28;20195;-79
2024/01/22 09:37:01;;;;;;;3.80;1.20;;;10.70;99.90;;;;;;5053914;28;20182;-78
2024/01/22 09:39:26;;;;;;;1.47;0.80;;;10.70;99.90;;;;;;5055857;28;20172;-79
2024/01/22 09:41:52;;;;;;;2.53;0.83;;;10.70;99.90;;;;;;5053449;28;20658;-78
2024/01/22 09:44:20;;;;;;;3.50;0.90;;;10.70;99.90;;;;;;5053470;28;20179;-78
2024/01/22 09:46:49;;;;;;;3.70;1.10;;;10.80;99.90;;;;;;5054903;28;20179;-78
2024/01/22 09:49:14;;;;;;;3.13;1.10;;;10.80;99.90;;;;;;5055788;28;20230;-79
2024/01/22 09:51:44;;;;;;;2.13;1.07;;;10.90;99.90;;;;;;5053868;28;20639;-79
2024/01/22 09:54:18;;;;;;;9.43;1.27;;;10.90;99.90;;;;;;5055050;28;20258;-79
2024/01/22 09:56:49;;;;;;;5.47;1.10;;;11.00;99.90;;;;;;5055090;28;20274;-78
2024/01/22 09:59:24;;;;;;;5.60;1.20;;;11.00;99.90;;;;;;5054995;28;20164;-78
2024/01/22 10:01:52;;;;;;;5.47;1.20;;;11.00;99.90;;;;;;5053521;28;20179;-78
2024/01/22 10:04:18;;;;;;;3.57;1.20;;;11.00;99.90;;;;;;5053538;28;20182;-79
2024/01/22 10:06:45;;;;;;;3.70;1.37;;;11.00;99.90;;;;;;5053409;28;20183;-79
2024/01/22 10:09:15;;;;;;;2.37;1.20;;;11.10;99.90;;;;;;5055314;28;20168;-78
2024/01/22 10:11:40;;;;;;;5.63;1.50;;;11.20;99.90;;;;;;5053028;28;20180;-79
2024/01/22 10:14:06;;;;;;;6.70;1.40;;;11.30;99.90;;;;;;5054686;28;20174;-80
2024/01/22 10:16:32;;;;;;;7.37;1.53;;;11.20;99.90;;;;;;5053642;28;20176;-78
2024/01/22 10:18:59;;;;;;;6.13;1.70;;;11.20;99.90;;;;;;5055067;28;20285;-79
2024/01/22 10:21:26;;;;;;;5.03;1.40;;;11.20;99.90;;;;;;5053590;28;20196;-79
2024/01/22 10:23:59;;;;;;;5.77;1.37;;;11.20;99.90;;;;;;5054228;28;20187;-79
2024/01/22 10:26:25;;;;;;;3.37;1.07;;;11.20;99.90;;;;;;5054978;28;20175;-79
2024/01/22 10:28:52;;;;;;;6.57;1.50;;;11.20;99.90;;;;;;5055166;28;20253;-80
2024/01/22 10:31:18;;;;;;;6.03;1.47;;;11.20;99.90;;;;;;5053718;28;20199;-79
2024/01/22 10:33:45;;;;;;;5.13;1.60;;;11.10;99.90;;;;;;5053414;28;20196;-79
2024/01/22 10:36:19;;;;;;;5.43;1.80;;;11.20;99.90;;;;;;5053499;28;20203;-79
2024/01/22 10:38:46;;;;;;;3.83;1.10;;;11.10;99.90;;;;;;5054920;28;20514;-79
2024/01/22 10:41:20;;;;;;;4.20;1.50;;;11.10;99.90;;;;;;5053140;28;20215;-80
2024/01/22 10:43:46;;;;;;;6.77;1.73;;;11.10;99.90;;;;;;5053787;28;20179;-79
2024/01/22 10:46:12;;;;;;;5.70;1.30;;;11.20;99.90;;;;;;5054901;28;20164;-79
2024/01/22 10:48:40;;;;;;;5.27;1.50;;;11.20;99.90;;;;;;5055626;28;20524;-79
2024/01/22 10:51:05;;;;;;;6.17;1.47;;;11.20;99.90;;;;;;5054246;28;20271;-80
2024/01/22 10:53:35;;;;;;;7.23;1.73;;;11.20;99.90;;;;;;5057881;28;20180;-84
2024/01/22 10:56:10;;;;;;;6.70;1.67;;;11.20;99.90;;;;;;5059716;28;20222;-82
2024/01/22 10:58:41;;;;;;;5.27;1.50;;;11.30;99.90;;;;;;5060505;28;20175;-82
2024/01/22 11:01:14;;;;;;;8.90;2.03;;;11.30;99.90;;;;;;5064349;28;20196;-82
2024/01/22 11:03:53;;;;;;;5.63;1.50;;;11.30;99.90;;;;;;5065028;28;20164;-81
2024/01/22 11:06:27;;;;;;;5.00;1.33;;;11.40;99.90;;;;;;5063742;28;20239;-82
2024/01/22 11:08:54;;;;;;;4.90;1.40;;;11.30;99.90;;;;;;5067455;28;20235;-81
2024/01/22 11:11:21;;;;;;;7.40;1.70;;;11.40;99.90;;;;;;5061307;28;20273;-81
2024/01/22 11:13:52;;;;;;;6.13;1.37;;;11.30;99.90;;;;;;5060694;28;20221;-82
2024/01/22 11:16:19;;;;;;;4.00;1.20;;;11.40;99.90;;;;;;5059625;28;20667;-81
2024/01/22 11:19:03;;;;;;;5.60;1.50;;;11.30;99.90;;;;;;5060988;28;20496;-81
2024/01/22 11:21:39;;;;;;;5.33;1.37;;;11.30;99.90;;;;;;5059749;28;20207;-80
2024/01/22 11:24:09;;;;;;;3.90;1.57;;;11.40;99.90;;;;;;5054935;28;20175;-80
2024/01/22 11:26:34;;;;;;;3.40;0.90;;;11.50;99.90;;;;;;5054386;28;20175;-81
2024/01/22 11:29:13;;;;;;;4.50;1.20;;;11.50;99.90;;;;;;5054336;28;20302;-81
2024/01/22 11:31:39;;;;;;;5.07;1.10;;;11.50;99.90;;;;;;5056670;28;20287;-81
2024/01/22 11:34:05;;;;;;;3.47;1.23;;;11.50;99.90;;;;;;5055446;28;20257;-81
2024/01/22 11:36:53;;;;;;;3.63;1.10;;;11.60;99.90;;;;;;5054911;28;20809;-80
2024/01/22 11:39:41;;;;;;;3.03;1.10;;;11.60;99.90;;;;;;5055260;28;20172;-80
2024/01/22 11:42:07;;;;;;;5.20;1.17;;;11.60;99.90;;;;;;5056575;28;20164;-81
2024/01/22 11:44:40;;;;;;;4.30;1.10;;;11.70;99.90;;;;;;5056090;28;20202;-79
2024/01/22 11:47:09;;;;;;;5.33;1.33;;;11.70;99.90;;;;;;5055984;28;20184;-80
2024/01/22 11:49:35;;;;;;;5.17;1.27;;;11.80;99.90;;;;;;5056024;28;20642;-78
2024/01/22 11:52:10;;;;;;;4.78;1.23;;;11.80;99.90;;;;;;5055722;28;20426;-79
2024/01/22 11:54:35;;;;;;;8.30;1.30;;;11.80;99.90;;;;;;5058346;28;20195;-81
2024/01/22 11:57:02;;;;;;;7.70;1.80;;;11.70;99.90;;;;;;5057057;28;20179;-79
2024/01/22 11:59:28;;;;;;;7.70;1.55;;;11.60;99.90;;;;;;5058768;28;20414;-81
2024/01/22 12:02:14;;;;;;;7.57;1.70;;;11.40;99.90;;;;;;5056564;28;20180;-81
2024/01/22 12:04:40;;;;;;;6.37;1.50;;;11.30;99.90;;;;;;5058559;28;20305;-80
2024/01/22 12:07:05;;;;;;;4.70;1.67;;;11.20;99.90;;;;;;5055468;28;20258;-81
2024/01/22 12:09:35;;;;;;;7.27;1.80;;;11.10;99.90;;;;;;5056525;28;20226;-80
2024/01/22 12:12:04;;;;;;;3.50;1.20;;;11.10;99.90;;;;;;5055369;28;20175;-81
2024/01/22 12:14:30;;;;;;;5.53;1.40;;;11.10;99.90;;;;;;5054131;28;20252;-79
2024/01/22 12:17:02;;;;;;;4.17;1.37;;;11.00;99.90;;;;;;5052996;28;20183;-81
2024/01/22 12:19:29;;;;;;;5.07;1.67;;;11.00;99.90;;;;;;5053206;28;20172;-81
2024/01/22 12:21:55;;;;;;;6.40;1.23;;;11.00;99.90;;;;;;5053743;28;20176;-80
2024/01/22 12:24:20;;;;;;;5.70;1.33;;;11.10;99.90;;;;;;5055945;28;20556;-81
2024/01/22 12:26:46;;;;;;;9.53;1.90;;;11.10;99.90;;;;;;5055496;28;20175;-81
2024/01/22 12:29:25;;;;;;;9.53;1.50;;;11.10;99.90;;;;;;5055439;28;20206;-80
2024/01/22 12:32:04;;;;;;;6.37;1.43;;;11.10;99.90;;;;;;5058028;28;20172;-82
2024/01/22 12:34:30;;;;;;;8.67;2.03;;;11.10;99.90;;;;;;5055967;28;20211;-81
2024/01/22 12:36:56;;;;;;;9.93;1.90;;;11.00;99.90;;;;;;5056486;28;20183;-81
2024/01/22 12:39:21;;;;;;;7.50;1.83;;;11.10;99.90;;;;;;5058343;28;20176;-81
2024/01/22 12:41:47;;;;;;;6.37;1.60;;;11.00;99.90;;;;;;5057355;28;20186;-82
2024/01/22 12:44:16;;;;;;;10.50;1.80;;;11.00;99.90;;;;;;5057484;28;20172;-82
2024/01/22 12:46:41;;;;;;;10.00;2.33;;;11.00;99.90;;;;;;5058863;28;20528;-83
2024/01/22 12:49:07;;;;;;;9.17;2.77;;;11.10;99.90;;;;;;5038308;28;20183;-82
2024/01/22 12:51:33;;;;;;;11.63;2.47;;;11.10;99.90;;;;;;5036193;28;20196;-82